Cushman, Montana
Current Conditions -  °F | °C
As of 1:55 AM on Sunday 26 Oct 2014 (Local Time) from KMVH Reporting Station
Clear Clear  
Wind Chill: 61°   Ceiling: Unl
Heat Index: 61°   Visibility: 10mi
Dew Point: 28°   Wind: 21mph
Humidity: 29%   Direction: 260°W
Pressure: 29.63"   Gusts: 28mph
Location:  46.4448°N, 109.102°W
Report Text: KMVH 260755Z AUTO 26018G24KT 10SM CLR 16/M02 A2963 RMK A01
Loading
Personal Weather Stations






























Interactive Weather Map
Tropical Storm Tracking
New forecast layout! Learn more

10-Day Weather Forecast

Advertisements
Track Severe Weather on mobile